createdAt,value
2018-05-18T00:00:00.091Z,4.90
2018-05-18T00:02:28.918Z,5.43
2018-05-18T00:04:57.308Z,4.50
2018-05-18T00:07:25.723Z,4.63
2018-05-18T00:09:54.222Z,3.87
2018-05-18T00:12:22.633Z,4.07
2018-05-18T00:14:51.046Z,3.53
2018-05-18T00:17:19.707Z,4.23
2018-05-18T00:19:48.099Z,3.43
2018-05-18T00:22:16.523Z,3.13
2018-05-18T00:24:45.159Z,2.87
2018-05-18T00:27:13.596Z,3.03
2018-05-18T00:29:41.968Z,3.50
2018-05-18T00:32:10.367Z,2.87
2018-05-18T00:34:38.752Z,2.90
2018-05-18T00:37:07.147Z,3.20
2018-05-18T00:39:35.955Z,3.00
2018-05-18T00:42:04.373Z,2.80
2018-05-18T00:44:32.783Z,2.47
2018-05-18T00:47:01.494Z,2.80
2018-05-18T00:49:29.900Z,2.67
2018-05-18T00:51:58.322Z,2.70
2018-05-18T00:54:26.758Z,2.77
2018-05-18T00:56:55.147Z,2.57
2018-05-18T00:59:23.529Z,2.90
2018-05-18T01:01:52.293Z,2.73
2018-05-18T01:04:20.692Z,3.10
2018-05-18T01:06:49.098Z,3.10
2018-05-18T01:09:17.523Z,3.43
2018-05-18T01:11:45.965Z,2.93
2018-05-18T01:14:14.333Z,2.90
2018-05-18T01:16:42.978Z,3.10
2018-05-18T01:19:11.364Z,3.23
2018-05-18T01:21:39.802Z,3.70
2018-05-18T01:24:08.626Z,2.97
2018-05-18T01:26:37.012Z,3.60
2018-05-18T01:29:05.430Z,3.27
2018-05-18T01:31:33.871Z,3.33
2018-05-18T01:34:02.259Z,3.20
2018-05-18T01:36:30.651Z,4.00
2018-05-18T01:38:59.411Z,3.60
2018-05-18T01:41:27.791Z,3.70
2018-05-18T01:43:56.236Z,3.27
2018-05-18T01:46:25.051Z,3.63
2018-05-18T01:48:53.461Z,2.70
2018-05-18T01:51:21.910Z,3.37
2018-05-18T01:53:50.526Z,5.17
2018-05-18T01:56:18.940Z,3.43
2018-05-18T01:58:47.397Z,3.13
2018-05-18T02:01:16.064Z,3.43
2018-05-18T02:03:44.456Z,3.30
2018-05-18T02:06:12.869Z,4.20
2018-05-18T02:08:41.611Z,3.70
2018-05-18T02:11:10.023Z,3.63
2018-05-18T02:13:38.479Z,3.20
2018-05-18T02:16:07.244Z,3.43
2018-05-18T02:18:35.629Z,2.80
2018-05-18T02:21:04.066Z,2.97
2018-05-18T02:23:32.806Z,2.33
2018-05-18T02:26:01.200Z,2.83
2018-05-18T02:28:29.594Z,2.30
2018-05-18T02:30:58.286Z,2.50
2018-05-18T02:33:26.776Z,2.90
2018-05-18T02:35:55.164Z,2.93
2018-05-18T02:38:23.938Z,3.23
2018-05-18T02:40:52.431Z,2.70
2018-05-18T02:43:20.862Z,2.40
2018-05-18T02:45:49.431Z,2.83
2018-05-18T02:48:17.909Z,3.07
2018-05-18T02:50:46.298Z,2.40
2018-05-18T02:53:15.115Z,2.80
2018-05-18T02:55:43.529Z,2.40
2018-05-18T02:58:11.926Z,2.80
2018-05-18T03:00:40.529Z,4.07
2018-05-18T03:03:08.940Z,3.43
2018-05-18T03:05:37.340Z,2.73
2018-05-18T03:08:05.923Z,2.53
2018-05-18T03:10:34.340Z,3.20
2018-05-18T03:13:02.847Z,3.47
2018-05-18T03:15:31.692Z,3.07
2018-05-18T03:18:00.136Z,3.00
2018-05-18T03:20:28.524Z,2.97
2018-05-18T03:22:57.192Z,3.33
2018-05-18T03:25:25.597Z,3.17
2018-05-18T03:27:54.001Z,4.50
2018-05-18T03:30:22.603Z,5.00
2018-05-18T03:32:51.040Z,4.87
2018-05-18T03:35:19.451Z,3.50
2018-05-18T03:37:47.933Z,2.93
2018-05-18T03:40:16.311Z,2.90
2018-05-18T03:42:44.731Z,2.90
2018-05-18T03:45:13.196Z,4.00
2018-05-18T03:47:41.672Z,3.17
2018-05-18T03:50:10.225Z,2.97
2018-05-18T03:52:38.656Z,3.30
2018-05-18T03:55:07.099Z,4.40
2018-05-18T03:57:35.513Z,4.03
2018-05-18T04:00:04.428Z,4.03
2018-05-18T04:02:44.904Z,4.53
2018-05-18T04:08:46.012Z,4.40
2018-05-18T04:11:14.450Z,4.03
2018-05-18T04:13:42.867Z,4.20
2018-05-18T04:16:11.250Z,4.67
2018-05-18T04:18:39.683Z,6.77
2018-05-18T04:21:08.110Z,6.03
2018-05-18T04:23:36.510Z,5.43
2018-05-18T04:26:05.334Z,5.43
2018-05-18T04:28:33.899Z,6.13
2018-05-18T04:31:02.353Z,5.43
2018-05-18T04:33:31.087Z,6.10
2018-05-18T04:36:00.390Z,8.50
2018-05-18T04:38:28.834Z,17.27
2018-05-18T04:40:57.299Z,16.53
2018-05-18T04:43:25.710Z,15.50
2018-05-18T04:45:54.135Z,11.50
2018-05-18T04:48:22.887Z,7.77
2018-05-18T04:50:51.487Z,10.03
2018-05-18T04:53:19.844Z,8.20
2018-05-18T04:55:48.267Z,8.23
2018-05-18T04:58:16.667Z,8.70
2018-05-18T05:00:45.087Z,9.17
2018-05-18T05:03:13.882Z,8.53
2018-05-18T05:05:42.301Z,7.83
2018-05-18T05:08:10.712Z,8.07
2018-05-18T05:10:39.346Z,7.30
2018-05-18T05:13:07.753Z,6.90
2018-05-18T05:15:36.175Z,7.33
2018-05-18T05:18:04.991Z,7.20
2018-05-18T05:20:33.396Z,8.63
2018-05-18T05:23:01.794Z,6.30
2018-05-18T05:25:30.445Z,8.13
2018-05-18T05:27:58.846Z,6.90
2018-05-18T05:30:27.467Z,7.23
2018-05-18T05:32:55.965Z,8.27
2018-05-18T05:35:24.392Z,7.77
2018-05-18T05:37:52.951Z,8.43
2018-05-18T05:40:21.651Z,8.97
2018-05-18T05:42:50.061Z,10.17
2018-05-18T05:45:18.482Z,9.77
2018-05-18T05:47:46.955Z,10.87
2018-05-18T05:50:15.347Z,9.93
2018-05-18T05:52:43.801Z,9.80
2018-05-18T05:55:12.324Z,9.33
2018-05-18T05:57:40.731Z,10.90
2018-05-18T06:00:09.135Z,10.50
2018-05-18T06:02:37.599Z,9.70
2018-05-18T06:05:06.026Z,10.20
2018-05-18T06:07:34.415Z,10.87
2018-05-18T06:10:02.845Z,11.60
2018-05-18T06:12:31.290Z,10.70
2018-05-18T06:14:59.701Z,10.23
2018-05-18T06:17:28.563Z,11.37
2018-05-18T06:19:56.966Z,10.13
2018-05-18T06:22:25.361Z,10.27
2018-05-18T06:24:54.000Z,11.43
2018-05-18T06:27:22.400Z,8.97
2018-05-18T06:29:50.832Z,9.10
2018-05-18T06:32:19.649Z,8.60
2018-05-18T06:34:48.231Z,8.53
2018-05-18T06:37:16.647Z,7.80
2018-05-18T06:39:45.399Z,7.43
2018-05-18T06:42:13.844Z,7.10
2018-05-18T06:44:42.258Z,6.70
2018-05-18T06:47:10.863Z,6.10
2018-05-18T06:49:39.269Z,11.27
2018-05-18T06:52:07.656Z,4.43
2018-05-18T06:54:36.438Z,7.67
2018-05-18T06:57:04.860Z,6.20
2018-05-18T06:59:33.319Z,6.47
2018-05-18T07:02:02.159Z,5.43
2018-05-18T07:04:30.547Z,5.70
2018-05-18T07:06:58.979Z,5.80
2018-05-18T07:09:27.723Z,5.57
2018-05-18T07:11:56.111Z,5.10
2018-05-18T07:14:24.500Z,6.07
2018-05-18T07:16:53.259Z,5.03
2018-05-18T07:19:21.660Z,6.47
2018-05-18T07:21:50.048Z,6.40
2018-05-18T07:24:18.691Z,5.37
2018-05-18T07:26:47.107Z,7.43
2018-05-18T07:29:15.524Z,7.23
2018-05-18T07:31:44.344Z,7.43
2018-05-18T07:34:12.775Z,6.60
2018-05-18T07:36:41.183Z,7.03
2018-05-18T07:39:09.648Z,6.33
2018-05-18T07:41:38.051Z,7.20
2018-05-18T07:44:06.454Z,7.13
2018-05-18T07:46:35.134Z,8.30
2018-05-18T07:49:03.546Z,8.60
2018-05-18T07:51:31.967Z,9.13
2018-05-18T07:54:00.694Z,9.13
2018-05-18T07:56:29.084Z,8.97
2018-05-18T07:58:57.527Z,8.93
2018-05-18T08:01:25.964Z,8.33
2018-05-18T08:03:54.400Z,8.20
2018-05-18T08:06:22.815Z,7.70
2018-05-18T08:08:51.585Z,7.53
2018-05-18T08:11:19.971Z,7.97
2018-05-18T08:13:48.359Z,6.67
2018-05-18T08:16:17.115Z,5.83
2018-05-18T08:18:45.478Z,5.20
2018-05-18T08:21:13.897Z,4.37
2018-05-18T08:23:42.578Z,5.37
2018-05-18T08:26:10.967Z,6.23
2018-05-18T08:28:51.487Z,5.50
2018-05-18T08:31:19.856Z,5.03
2018-05-18T08:33:48.236Z,5.23
2018-05-18T08:36:17.059Z,5.37
2018-05-18T08:38:45.495Z,4.87
2018-05-18T08:41:13.928Z,4.43
2018-05-18T08:43:42.360Z,6.03
2018-05-18T08:46:10.790Z,4.97
2018-05-18T08:48:39.180Z,4.70
2018-05-18T08:51:07.847Z,4.93
2018-05-18T08:53:36.238Z,4.73
2018-05-18T08:56:04.662Z,5.00
2018-05-18T08:58:33.303Z,6.00
2018-05-18T09:01:01.724Z,5.80
2018-05-18T09:03:30.116Z,4.40
2018-05-18T09:05:58.748Z,5.20
2018-05-18T09:08:27.134Z,6.60
2018-05-18T09:10:55.541Z,6.37
2018-05-18T09:13:24.196Z,6.70
2018-05-18T09:15:52.672Z,7.43
2018-05-18T09:18:21.033Z,6.00
2018-05-18T09:20:49.853Z,7.23
2018-05-18T09:23:18.239Z,7.73
2018-05-18T09:25:46.670Z,7.10
2018-05-18T09:28:15.387Z,8.67
2018-05-18T09:30:43.792Z,8.17
2018-05-18T09:33:12.223Z,8.13
2018-05-18T09:35:40.849Z,8.30
2018-05-18T09:38:09.383Z,8.73
2018-05-18T09:40:37.839Z,4.83
2018-05-18T09:43:06.547Z,6.73
2018-05-18T09:45:34.941Z,4.45
2018-05-18T09:48:03.363Z,5.45
2018-05-18T09:50:32.035Z,6.57
2018-05-18T09:53:00.425Z,5.93
2018-05-18T09:55:29.149Z,5.90
2018-05-18T09:57:57.323Z,4.53
2018-05-18T10:00:25.734Z,4.93
2018-05-18T10:02:54.160Z,4.37
2018-05-18T10:05:22.834Z,5.75
2018-05-18T10:07:51.231Z,4.28
2018-05-18T10:10:19.645Z,5.07
2018-05-18T10:12:48.064Z,3.80
2018-05-18T10:15:16.468Z,3.92
2018-05-18T10:17:44.898Z,3.80
2018-05-18T10:20:13.327Z,4.25
2018-05-18T10:22:41.750Z,6.10
2018-05-18T10:25:10.160Z,5.55
2018-05-18T10:27:38.928Z,4.30
2018-05-18T10:30:07.334Z,4.32
2018-05-18T10:32:35.787Z,3.53
2018-05-18T10:35:04.611Z,3.62
2018-05-18T10:37:33.023Z,3.50
2018-05-18T10:40:01.410Z,3.25
2018-05-18T10:42:30.255Z,2.60
2018-05-18T10:44:58.652Z,3.25
2018-05-18T10:47:27.048Z,3.70
2018-05-18T10:49:55.907Z,3.33
2018-05-18T10:52:24.335Z,3.55
2018-05-18T10:54:52.688Z,2.80
2018-05-18T10:57:21.365Z,3.60
2018-05-18T10:59:49.716Z,2.90
2018-05-18T11:02:18.115Z,3.35
2018-05-18T11:04:46.550Z,2.90
2018-05-18T11:07:14.935Z,2.62
2018-05-18T11:09:43.362Z,4.00
2018-05-18T11:12:12.176Z,3.20
2018-05-18T11:14:40.560Z,3.00
2018-05-18T11:17:08.957Z,3.30
2018-05-18T11:19:37.345Z,3.87
2018-05-18T11:22:05.771Z,2.50
2018-05-18T11:24:34.543Z,3.70
2018-05-18T11:27:02.948Z,2.60
2018-05-18T11:29:31.385Z,2.78
2018-05-18T11:31:59.791Z,3.15
2018-05-18T11:34:28.207Z,2.85
2018-05-18T11:36:56.592Z,2.90
2018-05-18T11:39:24.991Z,3.05
2018-05-18T11:41:53.718Z,2.78
2018-05-18T11:44:22.164Z,2.60
2018-05-18T11:46:50.559Z,2.83
2018-05-18T11:49:19.366Z,2.90
2018-05-18T11:51:47.771Z,2.65
2018-05-18T11:54:16.163Z,2.67
2018-05-18T11:56:44.589Z,2.72
2018-05-18T11:59:12.981Z,3.60
2018-05-18T12:01:41.362Z,3.60
2018-05-18T12:04:10.181Z,3.03
2018-05-18T12:06:38.611Z,3.15
2018-05-18T12:09:06.995Z,3.17
2018-05-18T12:11:35.819Z,3.72
2018-05-18T12:14:04.284Z,3.35
2018-05-18T12:16:32.661Z,4.12
2018-05-18T12:19:01.148Z,4.85
2018-05-18T12:21:29.558Z,3.97
2018-05-18T12:23:57.979Z,3.22
2018-05-18T12:26:26.611Z,3.33
2018-05-18T12:28:54.993Z,2.72
2018-05-18T12:31:23.396Z,3.45
2018-05-18T12:33:52.143Z,3.70
2018-05-18T12:36:20.591Z,3.45
2018-05-18T12:38:49.004Z,2.83
2018-05-18T12:41:17.424Z,2.83
2018-05-18T12:43:45.814Z,2.87
2018-05-18T12:46:14.205Z,2.90
2018-05-18T12:48:42.940Z,3.67
2018-05-18T12:51:11.338Z,3.95
2018-05-18T12:53:39.739Z,2.78
2018-05-18T12:56:08.804Z,3.42
2018-05-18T12:58:37.234Z,3.80
2018-05-18T13:01:05.616Z,3.53
2018-05-18T13:03:34.459Z,3.20
2018-05-18T13:06:02.859Z,3.00
2018-05-18T13:08:31.260Z,3.92
2018-05-18T13:11:00.131Z,3.00
2018-05-18T13:13:28.566Z,4.15
2018-05-18T13:15:57.072Z,4.28
2018-05-18T13:18:26.079Z,3.37
2018-05-18T13:20:54.487Z,3.50
2018-05-18T13:23:22.842Z,3.20
2018-05-18T13:25:51.403Z,3.85
2018-05-18T13:28:19.789Z,3.12
2018-05-18T13:30:48.204Z,2.95
2018-05-18T13:33:16.970Z,3.22
2018-05-18T13:35:45.407Z,2.35
2018-05-18T13:38:13.828Z,2.42
2018-05-18T13:40:42.607Z,3.10
2018-05-18T13:43:11.006Z,2.35
2018-05-18T13:45:39.516Z,3.12
2018-05-18T13:48:08.357Z,2.70
2018-05-18T13:50:36.759Z,4.57
2018-05-18T13:53:05.196Z,2.72
2018-05-18T13:55:34.220Z,3.03
2018-05-18T13:58:02.631Z,5.25
2018-05-18T14:00:31.049Z,2.70
2018-05-18T14:02:59.872Z,7.70
2018-05-18T14:05:28.280Z,5.78
2018-05-18T14:07:56.683Z,3.15
2018-05-18T14:10:25.327Z,4.35
2018-05-18T14:12:53.757Z,3.47
2018-05-18T14:15:22.124Z,5.37
2018-05-18T14:17:50.751Z,3.10
2018-05-18T14:20:19.163Z,4.75
2018-05-18T14:22:47.551Z,2.65
2018-05-18T14:25:15.988Z,2.80
2018-05-18T14:27:44.403Z,3.22
2018-05-18T14:30:12.820Z,3.05
2018-05-18T14:32:41.256Z,2.72
2018-05-18T14:35:09.723Z,3.30
2018-05-18T14:37:38.103Z,3.53
2018-05-18T14:40:06.902Z,2.95
2018-05-18T14:42:35.304Z,2.75
2018-05-18T14:45:03.768Z,3.62
2018-05-18T14:47:32.637Z,2.53
2018-05-18T14:50:01.027Z,2.62
2018-05-18T14:52:29.496Z,3.37
2018-05-18T14:54:58.510Z,3.10
2018-05-18T14:57:26.921Z,3.08
2018-05-18T14:59:55.327Z,2.75
2018-05-18T15:02:24.488Z,2.80
2018-05-18T15:04:52.875Z,3.67
2018-05-18T15:07:21.321Z,3.05
2018-05-18T15:09:50.111Z,3.17
2018-05-18T15:12:18.527Z,4.85
2018-05-18T15:14:46.923Z,3.67
2018-05-18T15:17:15.581Z,3.55
2018-05-18T15:19:43.984Z,3.62
2018-05-18T15:22:12.368Z,3.47
2018-05-18T15:24:41.199Z,2.95
2018-05-18T15:27:09.817Z,3.60
2018-05-18T15:29:38.371Z,3.30
2018-05-18T15:32:06.845Z,3.20
2018-05-18T15:34:35.312Z,3.43
2018-05-18T15:37:03.705Z,3.10
2018-05-18T15:39:32.503Z,2.50
2018-05-18T15:42:00.912Z,2.80
2018-05-18T15:44:29.341Z,3.57
2018-05-18T15:46:58.150Z,3.30
2018-05-18T15:49:26.571Z,5.47
2018-05-18T15:51:54.952Z,3.60
2018-05-18T15:54:23.817Z,3.30
2018-05-18T15:56:52.224Z,3.97
2018-05-18T15:59:20.629Z,2.53
2018-05-18T16:01:49.341Z,2.37
2018-05-18T16:04:17.834Z,2.40
2018-05-18T16:06:46.199Z,2.63
2018-05-18T16:09:15.231Z,2.30
2018-05-18T16:11:43.678Z,2.33
2018-05-18T16:14:12.057Z,1.90
2018-05-18T16:16:40.492Z,2.27
2018-05-18T16:19:08.898Z,1.83
2018-05-18T16:21:37.308Z,2.43
2018-05-18T16:24:06.052Z,1.93
2018-05-18T16:26:34.457Z,2.50
2018-05-18T16:29:02.881Z,1.90
2018-05-18T16:31:31.660Z,2.07
2018-05-18T16:34:00.064Z,1.90
2018-05-18T16:36:28.503Z,2.57
2018-05-18T16:38:57.106Z,2.00
2018-05-18T16:41:25.487Z,2.10
2018-05-18T16:43:53.903Z,2.13
2018-05-18T16:46:22.739Z,2.10
2018-05-18T16:48:51.148Z,2.93
2018-05-18T16:51:19.560Z,2.53
2018-05-18T16:53:48.504Z,2.53
2018-05-18T16:56:16.882Z,3.63
2018-05-18T16:58:45.280Z,3.30
2018-05-18T17:01:13.843Z,2.00
2018-05-18T17:03:42.227Z,2.53
2018-05-18T17:06:10.611Z,2.60
2018-05-18T17:08:39.402Z,2.40
2018-05-18T17:11:07.812Z,2.17
2018-05-18T17:13:36.212Z,2.87
2018-05-18T17:16:04.943Z,3.47
2018-05-18T17:18:33.359Z,2.33
2018-05-18T17:21:01.748Z,2.07
2018-05-18T17:23:30.600Z,1.80
2018-05-18T17:25:59.105Z,2.13
2018-05-18T17:28:27.439Z,1.97
2018-05-18T17:30:56.249Z,2.10
2018-05-18T17:33:24.632Z,2.00
2018-05-18T17:35:53.015Z,1.77
2018-05-18T17:38:21.777Z,1.97
2018-05-18T17:40:50.160Z,2.90
2018-05-18T17:43:18.549Z,2.30
2018-05-18T17:45:47.157Z,2.50
2018-05-18T17:48:15.562Z,2.10
2018-05-18T17:50:43.945Z,1.60
2018-05-18T17:53:12.583Z,2.17
2018-05-18T17:55:40.975Z,2.17
2018-05-18T17:58:09.359Z,2.50
2018-05-18T18:00:38.241Z,2.23
2018-05-18T18:03:06.631Z,3.30
2018-05-18T18:05:35.032Z,2.40
2018-05-18T18:08:04.169Z,2.40
2018-05-18T18:10:32.567Z,3.00
2018-05-18T18:13:00.943Z,2.80
2018-05-18T18:15:29.748Z,2.27
2018-05-18T18:17:58.134Z,3.23
2018-05-18T18:20:26.533Z,2.40
2018-05-18T18:22:55.392Z,1.80
2018-05-18T18:25:23.783Z,2.60
2018-05-18T18:27:52.159Z,2.63
2018-05-18T18:30:20.967Z,2.20
2018-05-18T18:32:49.357Z,2.60
2018-05-18T18:35:17.727Z,2.73
2018-05-18T18:37:46.176Z,2.33
2018-05-18T18:40:14.550Z,2.00
2018-05-18T18:42:42.937Z,2.33
2018-05-18T18:45:11.524Z,2.40
2018-05-18T18:47:39.947Z,2.70
2018-05-18T18:50:08.335Z,2.50
2018-05-18T18:52:37.281Z,2.20
2018-05-18T18:55:05.684Z,2.27
2018-05-18T18:57:34.082Z,2.50
2018-05-18T19:00:02.731Z,2.40
2018-05-18T19:02:31.111Z,2.40
2018-05-18T19:04:59.509Z,3.53
2018-05-18T19:07:28.272Z,2.33
2018-05-18T19:09:56.659Z,2.50
2018-05-18T19:12:25.057Z,2.17
2018-05-18T19:14:53.805Z,2.50
2018-05-18T19:17:22.188Z,2.20
2018-05-18T19:19:50.598Z,2.00
2018-05-18T19:22:19.367Z,2.40
2018-05-18T19:24:47.757Z,2.20
2018-05-18T19:27:16.146Z,2.37
2018-05-18T19:29:44.727Z,1.80
2018-05-18T19:32:13.110Z,2.60
2018-05-18T19:34:41.492Z,2.57
2018-05-18T19:37:10.273Z,1.83
2018-05-18T19:39:38.669Z,1.40
2018-05-18T19:42:07.060Z,1.67
2018-05-18T19:44:35.628Z,1.90
2018-05-18T19:47:04.147Z,1.57
2018-05-18T19:49:32.603Z,1.20
2018-05-18T19:52:01.243Z,1.50
2018-05-18T19:54:29.656Z,1.93
2018-05-18T19:56:58.035Z,2.10
2018-05-18T19:59:26.709Z,1.60
2018-05-18T20:01:55.080Z,1.73
2018-05-18T20:04:23.463Z,2.60
2018-05-18T20:06:51.951Z,2.20
2018-05-18T20:09:20.355Z,1.60
2018-05-18T20:11:48.747Z,1.60
2018-05-18T20:14:17.151Z,1.97
2018-05-18T20:16:45.539Z,2.07
2018-05-18T20:19:13.946Z,1.90
2018-05-18T20:21:42.641Z,1.50
2018-05-18T20:24:11.023Z,1.60
2018-05-18T20:26:39.411Z,1.23
2018-05-18T20:29:08.191Z,1.47
2018-05-18T20:31:36.600Z,1.30
2018-05-18T20:34:05.007Z,1.50
2018-05-18T20:36:33.833Z,2.13
2018-05-18T20:39:02.227Z,2.30
2018-05-18T20:41:30.616Z,1.80
2018-05-18T20:43:59.488Z,1.50
2018-05-18T20:46:28.043Z,1.47
2018-05-18T20:48:56.444Z,1.60
2018-05-18T20:51:25.242Z,1.67
2018-05-18T20:53:53.619Z,1.97
2018-05-18T20:56:21.995Z,1.43
2018-05-18T20:58:50.685Z,1.50
2018-05-18T21:01:19.121Z,1.77
2018-05-18T21:03:47.499Z,1.40
2018-05-18T21:06:16.326Z,1.50
2018-05-18T21:08:44.713Z,1.87
2018-05-18T21:11:13.116Z,1.83
2018-05-18T21:13:41.843Z,1.43
2018-05-18T21:16:10.227Z,1.50
2018-05-18T21:18:38.720Z,1.57
2018-05-18T21:21:07.145Z,1.33
2018-05-18T21:23:35.539Z,1.47
2018-05-18T21:26:03.948Z,1.87
2018-05-18T21:28:32.400Z,2.07
2018-05-18T21:31:00.831Z,1.70
2018-05-18T21:33:29.208Z,1.40
2018-05-18T21:35:58.020Z,2.20
2018-05-18T21:38:26.408Z,1.70
2018-05-18T21:40:54.771Z,2.17
2018-05-18T21:43:23.413Z,2.10
2018-05-18T21:45:51.795Z,1.80
2018-05-18T21:48:20.176Z,1.80
2018-05-18T21:50:48.914Z,1.83
2018-05-18T21:53:17.309Z,1.70
2018-05-18T21:55:45.698Z,1.53
2018-05-18T21:58:14.464Z,1.53
2018-05-18T22:00:43.687Z,1.37
2018-05-18T22:03:12.107Z,1.47
2018-05-18T22:05:40.828Z,1.77
2018-05-18T22:08:09.213Z,1.50
2018-05-18T22:10:37.591Z,1.63
2018-05-18T22:13:06.020Z,1.50
2018-05-18T22:15:34.401Z,2.00
2018-05-18T22:18:02.799Z,1.73
2018-05-18T22:20:31.843Z,1.50
2018-05-18T22:23:00.219Z,1.60
2018-05-18T22:25:28.578Z,2.07
2018-05-18T22:27:57.246Z,1.67
2018-05-18T22:30:25.625Z,1.73
2018-05-18T22:32:54.034Z,1.57
2018-05-18T22:35:22.722Z,2.20
2018-05-18T22:37:51.099Z,1.70
2018-05-18T22:40:19.530Z,1.90
2018-05-18T22:42:47.969Z,2.00
2018-05-18T22:45:16.375Z,1.57
2018-05-18T22:47:44.764Z,1.50
2018-05-18T22:50:13.503Z,1.47
2018-05-18T22:52:41.863Z,1.30
2018-05-18T22:55:10.246Z,1.30
2018-05-18T22:57:39.064Z,1.60
2018-05-18T23:00:07.488Z,1.50
2018-05-18T23:02:35.580Z,1.83
2018-05-18T23:05:04.412Z,1.60
2018-05-18T23:07:32.819Z,1.87
2018-05-18T23:10:01.204Z,1.57
2018-05-18T23:12:29.959Z,1.60
2018-05-18T23:14:58.355Z,2.10
2018-05-18T23:17:26.760Z,1.90
2018-05-18T23:19:55.279Z,1.47
2018-05-18T23:22:23.681Z,1.43
2018-05-18T23:24:52.077Z,1.43
2018-05-18T23:27:20.839Z,1.73
2018-05-18T23:29:49.219Z,1.60
2018-05-18T23:32:17.724Z,1.53
2018-05-18T23:34:46.152Z,1.50
2018-05-18T23:37:14.547Z,1.30
2018-05-18T23:39:42.973Z,1.50
2018-05-18T23:42:11.693Z,2.20
2018-05-18T23:44:40.099Z,1.50
2018-05-18T23:47:08.483Z,1.43
2018-05-18T23:49:37.289Z,1.70
2018-05-18T23:52:05.691Z,1.70
2018-05-18T23:54:34.086Z,1.60
2018-05-18T23:57:02.730Z,1.80
2018-05-18T23:59:31.126Z,2.07
